ADDS METAR Data INFO
IDs: Format: Raw Decoded Include TAF

Data at: 1132 UTC 29 May 2017

KCOT 291112Z AUTO 25004KT 10SM BKN012 24/22 A2992 RMK AO2 T02390217
KCOT 291101Z AUTO 00000KT 10SM SCT012 24/22 A2991 RMK AO2 T02440217
KCOT 291053Z AUTO 36005KT 10SM BKN012 24/22 A2991 RMK AO2 SLP120 T02440217
KCOT 291050Z AUTO 34005KT 10SM BKN012 24/22 A2991 RMK AO2
KCOT 290953Z AUTO 07012KT 10SM CLR 25/22 A2986 RMK AO2 PRESFR SLP103 T02500217
KCOT 290853Z AUTO 04007KT 360V070 10SM CLR 24/21 A2986 RMK AO2 LTG DSNT SE SLP103 60000 T02440206 53008
KCOT 290753Z AUTO 01010KT 10SM CLR 25/20 A2983 RMK AO2 WSHFT 0728 SLP092 T02500200
KCOT 290748Z AUTO 01007G19KT 10SM CLR 25/20 A2983 RMK AO2 WSHFT 0728
KCOT 290653Z AUTO 03008G18KT 10SM CLR 30/12 A2984 RMK AO2 PK WND 13038/0603 WSHFT 0555 RAE0556 TSE04 SLP095 P0000 T03000122
KCOT 290648Z AUTO VRB06G16KT 10SM CLR 29/13 A2985 RMK AO2 PK WND 13038/0603 WSHFT 0555 LTG DSNT NE RAE0556 TSE04 PRESRR P0000
KCOT 290609Z AUTO 15018G38KT 10SM VCTS FEW075 FEW110 29/13 A2978 RMK AO2 PK WND 13038/0603 WSHFT 0555 LTG DSNT NE-S RAE0556 TSE04 P0000 T02940133
KCOT 290553Z AUTO VRB05G20KT 10SM -TSRA FEW075 FEW100 BKN120 27/15 A2983 RMK AO2 PK WND 11035/0538 LTG DSNT NE-S RAE01B44 TSE20B35 SLP090 P0000 60059 T02670150 10344 20211 403830211 58014
KCOT 290541Z AUTO 12021G35KT 10SM TS SCT110 26/16 A2983 RMK AO2 PK WND 11035/0538 LTG DSNT ALQDS RAE01 TSE20B35 PRESFR P0000 T02560161
KCOT 290526Z AUTO 13024G31KT 10SM VCTS BKN110 25/17 A2986 RMK AO2 PK WND 14031/0512 LTG DSNT E-S RAE01 TSE20 P0000 T02500167
KCOT 290453Z AUTO 18020G27KT 10SM -TSRA OVC110 23/18 A2992 RMK AO2 PK WND 21032/0425 WSHFT 0345 LTG DSNT ALQDS SLP124 P0036 T02280178
KCOT 290420Z AUTO 20019G29KT 10SM -TSRA SCT026 SCT042 OVC110 22/19 A3000 RMK AO2 PK WND 21029/0419 WSHFT 0345 LTG DSNT ALQDS P0032 T02170194
KCOT 290413Z AUTO 22013G24KT 6SM TSRA BR FEW016 BKN029 OVC095 21/19 A3005 RMK AO2 WSHFT 0345 LTG DSNT ALQDS P0031 T02110189
KCOT 290400Z AUTO 25016G25KT 2 1/2SM +TSRA BR FEW015 BKN024 OVC030 21/19 A3003 RMK AO2 WSHFT 0345 VIS 1V5 LTG DSNT ALQDS P0016 T02110189
KCOT 290353Z AUTO 23013G24KT 7SM +TSRA FEW015 SCT019 OVC024 22/19 A3003 RMK AO2 LTG DSNT ALQDS SLP162 P0018 T02170189
KCOT 290337Z AUTO 32017G22KT 10SM TSRA BKN025 BKN034 OVC048 26/23 A2999 RMK AO2 LTG DSNT ALQDS PRESRR P0008 T02560228
KCOT 290318Z AUTO 01007KT 10SM -TSRA SCT028 BKN050 OVC100 26/23 A2993 RMK AO2 LTG DSNT ALQDS PRESRR P0004 T02610228
KCOT 290253Z AUTO 01017G25KT 10SM TSRA BKN026 OVC110 26/23 A2987 RMK AO2 WSHFT 0234 LTG DSNT ALQDS SLP106 P0005 60005 T02560228 51028
KCOT 290250Z AUTO 02019G25KT 10SM TSRA BKN026 OVC110 26/23 A2987 RMK AO2 WSHFT 0234 LTG DSNT ALQDS P0004
KCOT 290153Z AUTO 10015G25KT 10SM -TSRA FEW045 OVC085 31/23 A2985 RMK AO2 LTG DSNT ALQDS RAB49 TSB42 SLP099 P0000 T03060233
KCOT 290148Z AUTO 12017G25KT 10SM TS FEW043 OVC085 31/23 A2984 RMK AO2 LTG DSNT ALQDS TSB42
KCOT 290128Z AUTO 13018G23KT 10SM VCTS FEW041 SCT048 BKN075 32/23 A2982 RMK AO2 LTG DSNT ALQDS T03170228
KCOT 290053Z AUTO 12014G22KT 10SM CLR 32/23 A2978 RMK AO2 LTG DSNT SW-N SLP077 T03220228
KCOT 282353Z AUTO 11015G22KT 10SM CLR 34/22 A2976 RMK AO2 LTG DSNT SW SLP069 T03440222 10383 20344 56008
KCOT 282253Z AUTO 12011KT 10SM FEW090 36/21 A2977 RMK AO2 SLP072 T03610206
KCOT 282153Z AUTO 12015KT 10SM FEW065 38/19 A2976 RMK AO2 SLP068 T03780194
KCOT 282053Z AUTO 17009KT 10SM CLR 37/19 A2978 RMK AO2 SLP076 T03720194 58018
KCOT 281953Z AUTO 14011G18KT 10SM CLR 38/20 A2981 RMK AO2 SLP085 T03780200
KCOT 281853Z AUTO 14007G16KT 10SM CLR 37/19 A2982 RMK AO2 SLP090 T03670194
KCOT 281753Z AUTO 12011KT 100V170 10SM CLR 35/22 A2984 RMK AO2 SLP095 T03500217 10356 20250 55000
KCOT 281653Z AUTO 13011KT 10SM CLR 33/22 A2983 RMK AO2 SLP091 T03330222
KCOT 281553Z AUTO 14009KT 10SM CLR 31/23 A2983 RMK AO2 SLP093 T03110228
KCOT 281453Z AUTO 14011KT 10SM CLR 29/23 A2984 RMK AO2 SLP095 T02940228 50007
KCOT 281353Z AUTO 11007KT 10SM CLR 28/23 A2985 RMK AO2 SLP097 T02780228
KCOT 281253Z AUTO 09006KT 10SM CLR 26/22 A2984 RMK AO2 SLP094 T02610222
KCOT 281153Z AUTO 00000KT 10SM CLR 25/22 A2982 RMK AO2 SLP087 T02500217 10283 20244 53014
KCOT 281053Z AUTO 08004KT 10SM CLR 25/22 A2980 RMK AO2 SLP081 T02500217
KCOT 280953Z AUTO 00000KT 10SM CLR 26/22 A2978 RMK AO2 SLP074 T02560222
KCOT 280853Z AUTO 16004KT 10SM CLR 27/22 A2978 RMK AO2 SLP073 T02670222 56009
KCOT 280753Z AUTO 15006KT 10SM CLR 28/23 A2978 RMK AO2 SLP074 T02780228
KCOT 280653Z AUTO 16015G22KT 10SM CLR 28/23 A2977 RMK AO2 SLP072 T02780233
KCOT 280553Z AUTO 16015G24KT 10SM CLR 28/23 A2980 RMK AO2 SLP083 T02830233 10372 20283 404000261 58014
KCOT 280453Z AUTO 15014KT 10SM CLR 29/23 A2984 RMK AO2 SLP096 T02890233
KCOT 280353Z AUTO 12009KT 10SM CLR 29/23 A2987 RMK AO2 SLP104 T02940233
KCOT 280253Z AUTO 13011KT 10SM CLR 31/23 A2985 RMK AO2 SLP097 T03110233 53034
KCOT 280153Z AUTO 12011KT 10SM CLR 33/23 A2979 RMK AO2 SLP079 T03280233
KCOT 280053Z AUTO 14012KT 10SM CLR 36/18 A2975 RMK AO2 SLP066 T03610183
KCOT 272353Z AUTO 15011KT 10SM CLR 37/18 A2974 RMK AO2 SLP063 T03720178 10400 20361 55008


Page loaded:  11:32 UTC  |   04:32 AM Pacific  |   05:32 AM Mountain  |   06:32 AM Central  |   07:32 AM Eastern

 

ADVISORIES

FORECASTS

FORECASTS

OBSERVATIONS

USER TOOLS

ABOUT US